Time;durP1;ratioP1;P1;durP2;ratioP2;P2;SDS_P1;SDS_P2;PMS_P1;PMS_P2;Temp;Humidity;BMP_temperature;BMP_pressure;BME280_temperature;BME280_humidity;BME280_pressure;Samples;Min_cycle;Max_cycle;Signal;HPM_P1;HPM_P2
2023/10/02 00:01:58;;;;;;;2.27;1.37;;;;;;;21.72;69.19;100931.72;5075640;28;20208;-80
2023/10/02 00:04:24;;;;;;;2.80;1.33;;;;;;;21.65;69.02;100923.25;5076054;28;20680;-81
2023/10/02 00:07:05;;;;;;;1.93;1.83;;;;;;;21.79;68.47;100931.03;5076079;28;20224;-80
2023/10/02 00:09:35;;;;;;;0.30;0.30;;;;;;;22.09;67.69;100942.19;5074421;28;20177;-80
2023/10/02 00:12:13;;;;;;;3.00;1.40;;;;;;;22.10;67.77;100941.00;5073553;28;20205;-79
2023/10/02 00:14:42;;;;;;;0.73;0.57;;;;;;;22.23;67.40;100943.19;5075203;28;20283;-81
2023/10/02 00:17:14;;;;;;;0.67;0.67;;;;;;;22.08;67.26;100937.81;5074668;28;20182;-80
2023/10/02 00:19:43;;;;;;;1.13;1.00;;;;;;;22.23;66.79;100953.50;5073977;28;20644;-81
2023/10/02 00:22:36;;;;;;;0.30;0.30;;;;;;;22.24;66.55;100936.44;5073244;28;20218;-80
2023/10/02 00:25:03;;;;;;;1.13;1.13;;;;;;;22.15;66.86;100932.34;5071665;28;20245;-80
2023/10/02 00:27:29;;;;;;;1.60;1.30;;;;;;;22.17;66.26;100930.78;5074786;28;20749;-80
2023/10/02 00:29:58;;;;;;;0.57;0.57;;;;;;;22.15;66.64;100932.34;5073633;28;20198;-81
2023/10/02 00:32:26;;;;;;;4.63;2.17;;;;;;;21.75;67.03;100907.91;5074447;28;20186;-80
2023/10/02 00:34:52;;;;;;;0.00;0.00;;;;;;;21.96;67.42;100931.25;5074067;28;20289;-80
2023/10/02 00:37:18;;;;;;;2.80;0.93;;;;;;;21.96;66.73;100910.97;5075075;28;20182;-80
2023/10/02 00:39:47;;;;;;;1.50;1.40;;;;;;;21.85;67.05;100905.28;5074674;28;20178;-80
2023/10/02 00:42:17;;;;;;;2.93;2.47;;;;;;;21.91;66.97;100916.88;5074256;28;20178;-80
2023/10/02 00:45:01;;;;;;;2.30;2.10;;;;;;;21.61;68.03;100909.31;5074247;28;20206;-81
2023/10/02 00:47:48;;;;;;;1.07;1.07;;;;;;;21.73;67.73;100904.72;5070538;28;20249;-81
2023/10/02 00:50:22;;;;;;;2.87;1.93;;;;;;;21.93;67.15;100923.66;5071565;28;20220;-81
2023/10/02 00:52:50;;;;;;;1.23;1.03;;;;;;;22.17;66.96;100929.97;5073067;28;20239;-81
2023/10/02 00:55:22;;;;;;;1.97;1.87;;;;;;;22.00;67.06;100919.41;5073025;28;20699;-81
2023/10/02 00:57:52;;;;;;;2.07;1.20;;;;;;;21.90;67.27;100916.09;5072728;28;20543;-81
2023/10/02 01:00:30;;;;;;;3.10;2.67;;;;;;;21.85;67.14;100910.84;5072517;28;20277;-81
2023/10/02 01:02:57;;;;;;;1.73;1.63;;;;;;;21.87;67.06;100914.06;5072280;28;20182;-81
2023/10/02 01:05:31;;;;;;;5.83;1.60;;;;;;;21.82;67.20;100914.38;5072806;28;20265;-81
2023/10/02 01:07:58;;;;;;;2.53;0.87;;;;;;;22.02;66.76;100925.38;5072637;28;20186;-81
2023/10/02 01:10:30;;;;;;;7.83;2.93;;;;;;;21.81;66.95;100912.78;5073817;28;20555;-80
2023/10/02 01:13:05;;;;;;;5.20;2.43;;;;;;;21.75;67.49;100919.84;5073393;28;20209;-80
2023/10/02 01:15:31;;;;;;;0.90;0.87;;;;;;;21.97;66.68;100921.72;5073652;28;20229;-80
2023/10/02 01:18:21;;;;;;;2.00;1.80;;;;;;;22.23;66.02;100934.03;5072541;28;20467;-81
2023/10/02 01:20:48;;;;;;;8.77;2.43;;;;;;;22.11;66.01;100921.16;5073182;28;20225;-80
2023/10/02 01:23:16;;;;;;;2.27;2.17;;;;;;;21.76;66.46;100901.97;5073473;28;20618;-79
2023/10/02 01:25:49;;;;;;;0.47;0.47;;;;;;;22.27;65.78;100926.50;5073641;28;20590;-81
2023/10/02 01:28:16;;;;;;;2.80;2.50;;;;;;;21.68;67.00;100897.47;5073465;28;20186;-80
2023/10/02 01:30:45;;;;;;;3.80;1.37;;;;;;;21.83;67.01;100913.19;5071182;28;20186;-80
2023/10/02 01:33:12;;;;;;;3.00;2.27;;;;;;;21.63;67.41;100904.19;5072392;28;20216;-81
2023/10/02 01:35:38;;;;;;;7.13;4.30;;;;;;;21.55;67.58;100894.13;5073202;28;20217;-80
2023/10/02 01:38:14;;;;;;;1.70;1.47;;;;;;;21.87;67.22;100921.59;5072160;28;20189;-79
2023/10/02 01:40:44;;;;;;;5.80;2.63;;;;;;;21.76;67.33;100906.75;5070902;28;20648;-79
2023/10/02 01:43:12;;;;;;;3.30;2.33;;;;;;;21.69;67.39;100902.66;5071859;28;20206;-79
2023/10/02 01:45:47;;;;;;;1.20;1.20;;;;;;;21.72;67.33;100903.13;5070914;28;20190;-80
2023/10/02 01:48:14;;;;;;;6.53;3.70;;;;;;;21.61;67.54;100891.81;5072043;28;20174;-79
2023/10/02 01:50:43;;;;;;;2.17;1.17;;;;;;;21.58;67.85;100889.81;5071899;28;20183;-80
2023/10/02 01:53:26;;;;;;;3.27;1.80;;;;;;;21.58;67.76;100887.03;5071017;28;20203;-79
2023/10/02 01:56:00;;;;;;;7.90;2.90;;;;;;;21.49;68.09;100890.06;5072518;28;20261;-80
2023/10/02 01:58:26;;;;;;;9.43;2.67;;;;;;;21.53;68.07;100888.13;5070792;28;20178;-80
2023/10/02 02:00:52;;;;;;;4.17;3.07;;;;;;;21.48;68.16;100891.25;5070294;28;20546;-80
2023/10/02 02:03:17;;;;;;;2.87;2.03;;;;;;;21.57;67.74;100890.97;5071783;28;20289;-79
2023/10/02 02:05:46;;;;;;;3.97;2.30;;;;;;;21.59;67.92;100885.84;5072016;28;20178;-79
2023/10/02 02:08:21;;;;;;;3.97;3.30;;;;;;;21.59;67.73;100894.19;5071712;28;20178;-79
2023/10/02 02:10:48;;;;;;;3.40;3.10;;;;;;;21.58;68.00;100896.16;5071420;28;20173;-80
2023/10/02 02:13:14;;;;;;;1.80;1.70;;;;;;;21.67;67.71;100902.25;5071607;28;20417;-79
2023/10/02 02:15:45;;;;;;;3.13;2.83;;;;;;;21.25;68.99;100882.94;5071800;28;20544;-79
2023/10/02 02:18:11;;;;;;;6.53;2.93;;;;;;;21.19;69.22;100875.28;5071925;28;20186;-80
2023/10/02 02:20:57;;;;;;;8.90;3.80;;;;;;;21.18;69.27;100865.34;5074223;28;20180;-80
2023/10/02 02:23:24;;;;;;;10.53;4.27;;;;;;;21.05;69.53;100871.09;5073402;28;20289;-80
2023/10/02 02:25:50;;;;;;;2.70;2.00;;;;;;;21.30;69.06;100882.63;5074938;28;20175;-79
2023/10/02 02:28:15;;;;;;;3.73;2.40;;;;;;;21.05;69.95;100876.63;5072868;28;20247;-80
2023/10/02 02:30:40;;;;;;;1.03;0.93;;;;;;;21.16;69.91;100881.59;5075049;28;20221;-80
2023/10/02 02:33:12;;;;;;;6.00;3.83;;;;;;;21.08;70.08;100875.88;5073031;28;20198;-79
2023/10/02 02:35:39;;;;;;;7.37;2.03;;;;;;;20.96;70.42;100870.53;5074498;28;20276;-80
2023/10/02 02:38:13;;;;;;;5.40;2.83;;;;;;;20.99;70.29;100875.38;5074625;28;20182;-79
2023/10/02 02:40:40;;;;;;;3.00;2.13;;;;;;;21.24;69.71;100886.06;5075376;28;20729;-80
2023/10/02 02:43:13;;;;;;;2.07;1.73;;;;;;;21.17;69.89;100885.97;5077686;28;20197;-80
2023/10/02 02:45:38;;;;;;;5.63;2.63;;;;;;;21.20;69.77;100882.44;5076537;28;20707;-81
2023/10/02 02:48:10;;;;;;;1.80;1.70;;;;;;;21.43;69.47;100899.91;5076592;28;20190;-81
2023/10/02 02:50:41;;;;;;;1.40;0.83;;;;;;;21.39;69.65;100891.50;5077426;28;20178;-80
2023/10/02 02:53:16;;;;;;;4.77;3.30;;;;;;;21.28;69.26;100879.44;5075980;28;20700;-80
2023/10/02 02:55:57;;;;;;;5.00;2.80;;;;;;;21.31;69.13;100881.47;5077703;28;20181;-80
2023/10/02 02:58:25;;;;;;;4.63;3.00;;;;;;;21.45;69.12;100885.63;5077481;28;20217;-79
2023/10/02 03:00:52;;;;;;;3.30;3.00;;;;;;;21.55;68.54;100894.13;5077377;28;20652;-80
2023/10/02 03:03:32;;;;;;;5.83;3.20;;;;;;;21.48;68.49;100899.59;5075748;28;20202;-79
2023/10/02 03:05:58;;;;;;;4.67;3.80;;;;;;;21.33;69.04;100881.88;5077366;28;20174;-80
2023/10/02 03:08:37;;;;;;;5.80;1.30;;;;;;;21.41;68.83;100882.81;5075622;28;20178;-80
2023/10/02 03:11:06;;;;;;;2.93;2.63;;;;;;;21.53;68.49;100890.09;5074444;28;20186;-81
2023/10/02 03:13:35;;;;;;;0.83;0.83;;;;;;;21.61;68.19;100889.84;5075008;28;20198;-80
2023/10/02 03:16:08;;;;;;;1.80;1.70;;;;;;;21.77;68.02;100911.94;5075280;28;20273;-81
2023/10/02 03:18:36;;;;;;;1.83;1.67;;;;;;;21.69;67.57;100897.09;5075586;28;20194;-80
2023/10/02 03:21:14;;;;;;;0.93;0.93;;;;;;;21.95;67.14;100910.19;5076114;28;20359;-80
2023/10/02 03:23:43;;;;;;;5.70;3.13;;;;;;;21.65;67.67;100889.91;5074883;28;20200;-80
2023/10/02 03:26:26;;;;;;;1.17;0.77;;;;;;;22.19;66.79;100920.06;5076355;28;20179;-79
2023/10/02 03:29:02;;;;;;;1.23;1.13;;;;;;;21.95;67.02;100899.03;5076201;28;20178;-80
2023/10/02 03:31:37;;;;;;;3.40;2.47;;;;;;;21.62;67.69;100883.09;5076857;28;20227;-80
2023/10/02 03:34:24;;;;;;;1.17;1.17;;;;;;;21.66;67.88;100878.38;5076147;28;20213;-80
2023/10/02 03:36:47;;;;;;;0.20;0.20;;;;;;;21.71;68.04;100884.81;5075550;28;20248;-79
2023/10/02 03:39:23;;;;;;;0.20;0.20;;;;;;;21.70;67.86;100878.47;5074447;28;20179;-79
2023/10/02 03:41:55;;;;;;;3.17;2.80;;;;;;;21.33;68.80;100862.44;5075273;28;20261;-79
2023/10/02 03:44:22;;;;;;;3.23;1.57;;;;;;;21.18;69.19;100860.56;5074207;28;20202;-79
2023/10/02 03:46:48;;;;;;;4.17;2.73;;;;;;;21.34;69.21;100866.00;5075581;28;20569;-80
2023/10/02 03:49:17;;;;;;;1.27;1.17;;;;;;;21.13;69.84;100849.78;5075281;28;20359;-79
2023/10/02 03:51:44;;;;;;;2.00;1.00;;;;;;;21.07;70.26;100851.25;5073625;28;20213;-79
2023/10/02 03:54:29;;;;;;;2.23;2.03;;;;;;;21.15;70.06;100858.53;5075086;28;20753;-80
2023/10/02 03:56:55;;;;;;;3.03;2.23;;;;;;;20.92;70.67;100844.66;5075280;28;20182;-80
2023/10/02 03:59:27;;;;;;;1.80;1.70;;;;;;;21.04;70.72;100858.38;5075351;28;20174;-79
2023/10/02 04:02:24;;;;;;;2.43;2.23;;;;;;;20.87;71.32;100856.09;5074653;28;20641;-80
2023/10/02 04:04:43;;;;;;;4.13;2.73;;;;;;;20.79;71.52;100846.84;5075000;28;20229;-80
2023/10/02 04:07:10;;;;;;;4.23;2.87;;;;;;;20.66;71.78;100831.53;5074935;28;20625;-78
2023/10/02 04:09:36;;;;;;;2.47;2.27;;;;;;;20.73;71.74;100844.75;5074798;28;20174;-78
2023/10/02 04:12:04;;;;;;;2.93;1.93;;;;;;;20.68;72.19;100842.25;5073024;28;20236;-79
2023/10/02 04:14:32;;;;;;;2.87;1.83;;;;;;;20.69;72.05;100841.91;5074573;28;20302;-80
2023/10/02 04:17:20;;;;;;;2.90;1.97;;;;;;;20.73;72.07;100842.78;5074526;28;20174;-79
2023/10/02 04:19:49;;;;;;;2.13;2.00;;;;;;;20.78;71.64;100841.66;5074254;28;20185;-79
2023/10/02 04:22:22;;;;;;;2.57;2.37;;;;;;;20.71;72.21;100847.09;5073673;28;20197;-79
2023/10/02 04:24:54;;;;;;;1.43;1.33;;;;;;;20.74;72.15;100860.25;5073031;28;20190;-79
2023/10/02 04:27:33;;;;;;;6.33;3.87;;;;;;;20.71;72.14;100852.66;5074326;28;20178;-79
2023/10/02 04:33:07;;;;;;;6.20;2.10;;;;;;;20.79;72.12;100852.38;5074015;28;20178;-79
2023/10/02 04:35:45;;;;;;;8.33;3.10;;;;;;;20.67;72.29;100854.53;5073822;28;20202;-79
2023/10/02 04:38:14;;;;;;;2.43;2.23;;;;;;;20.61;72.41;100848.50;5073976;28;20178;-79
2023/10/02 04:40:51;;;;;;;6.37;2.93;;;;;;;20.64;72.33;100850.53;5073700;28;20178;-79
2023/10/02 04:43:22;;;;;;;2.73;2.47;;;;;;;20.46;72.53;100835.53;5073785;28;20198;-80
2023/10/02 04:45:50;;;;;;;2.40;2.20;;;;;;;20.32;73.36;100840.78;5074051;28;20177;-79
2023/10/02 04:48:17;;;;;;;4.17;3.77;;;;;;;20.32;73.21;100833.28;5072568;28;20179;-80
2023/10/02 04:50:46;;;;;;;2.87;2.50;;;;;;;20.41;73.10;100844.16;5072093;28;20209;-80
2023/10/02 04:55:44;;;;;;;3.07;2.63;;;;;;;20.26;73.22;100845.06;5074042;28;20207;-80
2023/10/02 04:58:14;;;;;;;11.93;3.60;;;;;;;20.40;73.06;100860.00;5072490;28;20654;-80
2023/10/02 05:03:28;;;;;;;4.20;3.00;;;;;;;20.23;73.82;100862.41;5063134;28;20211;-80
2023/10/02 05:05:55;;;;;;;5.53;2.50;;;;;;;20.34;73.71;100866.19;5076717;28;20189;-80
2023/10/02 05:08:40;;;;;;;6.50;3.47;;;;;;;20.33;73.84;100865.41;5075899;28;20299;-79
2023/10/02 05:11:08;;;;;;;2.40;2.20;;;;;;;20.42;73.64;100870.75;5074245;28;20174;-80
2023/10/02 05:16:39;;;;;;;4.20;3.00;;;;;;;20.22;74.42;100856.06;5075067;28;20182;-80
2023/10/02 05:19:09;;;;;;;4.10;3.47;;;;;;;20.29;74.48;100866.50;5073366;28;20183;-79
2023/10/02 05:21:50;;;;;;;4.10;2.97;;;;;;;20.15;74.41;100859.50;5070789;28;20186;-79
2023/10/02 05:24:18;;;;;;;4.50;3.53;;;;;;;20.21;74.38;100855.25;5071116;28;20201;-79
2023/10/02 05:26:44;;;;;;;6.40;3.57;;;;;;;20.14;74.75;100855.13;5071250;28;20250;-79
2023/10/02 05:29:17;;;;;;;5.53;3.97;;;;;;;20.17;74.57;100848.84;5071218;28;20671;-79
2023/10/02 05:31:47;;;;;;;4.87;2.27;;;;;;;20.20;74.57;100852.84;5070731;28;20174;-80
2023/10/02 05:34:23;;;;;;;14.27;5.53;;;;;;;20.14;74.82;100855.13;5070932;28;20210;-79
2023/10/02 05:37:04;;;;;;;3.70;3.40;;;;;;;20.28;74.33;100860.16;5072238;28;20285;-78
2023/10/02 05:39:39;;;;;;;8.03;3.00;;;;;;;20.36;74.25;100861.09;5071272;28;20190;-78
2023/10/02 05:42:13;;;;;;;6.10;4.00;;;;;;;20.40;74.33;100864.75;5070416;28;20664;-80
2023/10/02 05:44:39;;;;;;;4.93;3.67;;;;;;;20.42;73.94;100860.47;5072398;28;20243;-78
2023/10/02 05:47:05;;;;;;;10.17;3.37;;;;;;;20.42;73.80;100868.78;5072121;28;20182;-79
2023/10/02 05:49:31;;;;;;;2.00;1.80;;;;;;;20.62;73.30;100875.09;5070821;28;20189;-79
2023/10/02 05:51:56;;;;;;;4.03;3.33;;;;;;;20.61;73.18;100858.81;5071660;28;20253;-79
2023/10/02 05:54:26;;;;;;;2.97;2.47;;;;;;;20.60;73.15;100859.97;5071818;28;20285;-79
2023/10/02 05:56:54;;;;;;;7.80;3.87;;;;;;;20.47;73.54;100857.38;5070923;28;20185;-79
2023/10/02 05:59:24;;;;;;;2.90;2.13;;;;;;;20.62;73.31;100875.09;5071220;28;20182;-81
2023/10/02 06:01:52;;;;;;;2.30;2.10;;;;;;;20.59;73.61;100873.06;5072260;28;20181;-79
2023/10/02 06:04:22;;;;;;;3.97;3.53;;;;;;;20.47;73.60;100860.16;5072623;28;20190;-80
2023/10/02 06:06:49;;;;;;;3.60;3.30;;;;;;;20.71;73.07;100867.34;5073020;28;20178;-80
2023/10/02 06:09:14;;;;;;;8.17;3.47;;;;;;;20.61;73.32;100870.72;5071519;28;20182;-79
2023/10/02 06:12:02;;;;;;;8.50;2.53;;;;;;;20.75;72.94;100879.31;5072457;28;20185;-81
2023/10/02 06:14:26;;;;;;;3.13;2.83;;;;;;;20.76;72.77;100883.69;5071103;28;20229;-80
2023/10/02 06:16:55;;;;;;;6.00;3.40;;;;;;;20.78;72.84;100881.34;5072559;28;20257;-80
2023/10/02 06:19:20;;;;;;;6.20;3.50;;;;;;;20.72;72.73;100874.50;5071427;28;20227;-80
2023/10/02 06:22:00;;;;;;;1.03;1.03;;;;;;;20.83;72.95;100890.53;5071902;28;20190;-80
2023/10/02 06:24:29;;;;;;;4.47;2.60;;;;;;;20.70;73.03;100878.81;5070974;28;20194;-81
2023/10/02 06:26:57;;;;;;;13.17;3.50;;;;;;;20.68;73.51;100895.81;5070805;28;20725;-80
2023/10/02 06:29:29;;;;;;;5.30;3.57;;;;;;;20.82;73.29;100897.25;5072066;28;20179;-80
2023/10/02 06:31:58;;;;;;;12.57;2.37;;;;;;;20.90;72.86;100901.78;5071805;28;20178;-80
2023/10/02 06:34:37;;;;;;;1.83;1.70;;;;;;;21.00;72.67;100904.75;5070309;28;20202;-80
2023/10/02 06:37:07;;;;;;;2.93;2.57;;;;;;;21.13;72.04;100901.78;5071917;28;20182;-80
2023/10/02 06:39:37;;;;;;;3.40;3.10;;;;;;;21.01;72.81;100900.00;5071995;28;20276;-80
2023/10/02 06:42:06;;;;;;;7.40;3.63;;;;;;;21.20;72.58;100913.00;5071649;28;20724;-80
2023/10/02 06:44:37;;;;;;;15.23;3.33;;;;;;;21.29;72.39;100908.84;5070467;28;20209;-79
2023/10/02 06:47:04;;;;;;;3.70;3.40;;;;;;;21.15;72.29;100900.22;5072129;28;20605;-80
2023/10/02 06:49:30;;;;;;;4.33;3.40;;;;;;;21.26;72.11;100898.44;5072629;28;20190;-80
2023/10/02 06:52:10;;;;;;;2.20;1.60;;;;;;;21.38;71.57;100909.34;5070649;28;20178;-80
2023/10/02 06:54:42;;;;;;;6.37;2.80;;;;;;;21.43;71.89;100919.38;5071455;28;20202;-80
2023/10/02 06:57:11;;;;;;;4.43;4.03;;;;;;;21.35;71.62;100901.75;5072500;28;20174;-80
2023/10/02 06:59:38;;;;;;;3.30;2.80;;;;;;;21.42;71.66;100917.78;5070290;28;20229;-80
2023/10/02 07:02:06;;;;;;;3.43;2.40;;;;;;;21.46;71.93;100928.94;5071347;28;20175;-80
2023/10/02 07:04:33;;;;;;;3.13;2.10;;;;;;;21.50;71.94;100921.44;5071814;28;20202;-80
2023/10/02 07:07:03;;;;;;;3.63;2.57;;;;;;;21.44;71.86;100925.75;5070522;28;20550;-80
2023/10/02 07:09:36;;;;;;;5.13;4.17;;;;;;;21.47;71.84;100931.34;5071854;28;20653;-80
2023/10/02 07:12:08;;;;;;;5.83;3.17;;;;;;;21.38;71.81;100925.22;5070089;28;20178;-79
2023/10/02 07:14:37;;;;;;;2.60;2.10;;;;;;;21.59;71.52;100933.91;5070067;28;20206;-80
2023/10/02 07:17:16;;;;;;;3.20;2.90;;;;;;;21.53;71.46;100934.59;5071935;28;20459;-81
2023/10/02 07:19:48;;;;;;;2.70;2.43;;;;;;;21.63;71.52;100945.09;5071600;28;20311;-80
2023/10/02 07:22:18;;;;;;;5.37;1.63;;;;;;;21.63;71.43;100940.34;5071105;28;20190;-80
2023/10/02 07:24:46;;;;;;;3.43;3.00;;;;;;;21.88;71.06;100948.25;5071598;28;20305;-80
2023/10/02 07:27:23;;;;;;;3.80;2.63;;;;;;;21.77;70.85;100934.19;5072709;28;20181;-80
2023/10/02 07:29:51;;;;;;;2.57;2.37;;;;;;;22.03;70.26;100954.81;5075297;28;20205;-81
2023/10/02 07:32:21;;;;;;;2.70;2.17;;;;;;;22.07;69.69;100944.56;5076141;28;20636;-81
2023/10/02 07:34:47;;;;;;;5.20;3.83;;;;;;;22.10;68.97;100938.22;5075678;28;20216;-80
2023/10/02 07:37:16;;;;;;;6.67;3.17;;;;;;;22.20;68.69;100940.34;5075208;28;20232;-80
2023/10/02 07:39:42;;;;;;;4.97;3.60;;;;;;;22.45;68.20;100944.25;5073592;28;20178;-80
2023/10/02 07:42:10;;;;;;;9.40;2.77;;;;;;;22.42;68.15;100942.22;5073479;28;20663;-80
2023/10/02 07:44:39;;;;;;;8.47;2.13;;;;;;;22.41;68.29;100943.38;5073757;28;20194;-81
2023/10/02 07:47:18;;;;;;;2.80;2.60;;;;;;;22.47;68.20;100946.66;5075967;28;20186;-80
2023/10/02 07:49:51;;;;;;;2.03;1.40;;;;;;;22.50;68.23;100952.25;5075970;28;20735;-80
2023/10/02 07:52:26;;;;;;;2.77;2.33;;;;;;;22.90;67.56;100955.50;5076351;28;20185;-80
2023/10/02 07:54:58;;;;;;;2.33;1.60;;;;;;;22.95;67.22;100938.44;5076369;28;20267;-81
2023/10/02 07:57:30;;;;;;;8.53;2.03;;;;;;;22.63;67.52;100922.16;5075353;28;20174;-81
2023/10/02 07:59:57;;;;;;;7.07;4.00;;;;;;;22.61;67.23;100913.41;5074963;28;20328;-80
2023/10/02 08:02:23;;;;;;;3.87;2.57;;;;;;;22.94;67.14;100940.41;5076116;28;20181;-81
2023/10/02 08:04:51;;;;;;;3.23;3.00;;;;;;;23.10;66.65;100942.94;5076220;28;20190;-81
2023/10/02 08:07:20;;;;;;;3.27;2.60;;;;;;;23.03;66.44;100935.34;5075772;28;20182;-80
2023/10/02 08:09:49;;;;;;;2.47;2.30;;;;;;;23.15;66.12;100937.84;5075687;28;20661;-80
2023/10/02 08:12:30;;;;;;;5.10;3.00;;;;;;;23.17;65.99;100936.66;5075175;28;20251;-80
2023/10/02 08:14:58;;;;;;;6.03;4.90;;;;;;;23.00;66.64;100933.31;5075704;28;20202;-79
2023/10/02 08:17:39;;;;;;;4.73;3.30;;;;;;;23.16;66.07;100930.28;5074407;28;20269;-80
2023/10/02 08:20:16;;;;;;;6.90;5.40;;;;;;;22.89;66.48;100909.31;5075559;28;20197;-80
2023/10/02 08:22:45;;;;;;;5.00;3.77;;;;;;;23.22;66.03;100930.72;5073761;28;20205;-80
2023/10/02 08:25:14;;;;;;;2.40;2.20;;;;;;;23.73;65.00;100947.47;5073524;28;20215;-80
2023/10/02 08:27:55;;;;;;;4.23;2.03;;;;;;;23.68;65.25;100931.09;5073527;28;20239;-79
2023/10/02 08:32:53;;;;;;;3.53;3.23;;;;;;;23.59;65.17;100930.66;5073274;28;20262;-79
2023/10/02 08:35:19;;;;;;;4.83;4.10;;;;;;;23.39;65.38;100907.75;5073312;28;20289;-78
2023/10/02 08:37:45;;;;;;;4.13;3.27;;;;;;;23.27;65.79;100908.03;5072639;28;20182;-79
2023/10/02 08:40:11;;;;;;;2.90;2.47;;;;;;;23.41;65.43;100908.94;5072957;28;20186;-79
2023/10/02 08:42:46;;;;;;;2.37;1.80;;;;;;;23.79;64.64;100914.41;5071640;28;20182;-79
2023/10/02 08:45:18;;;;;;;1.30;1.20;;;;;;;24.00;63.77;100911.72;5073163;28;20520;-79
2023/10/02 08:47:47;;;;;;;3.00;1.90;;;;;;;23.91;64.07;100916.88;5073319;28;20175;-79
2023/10/02 08:50:16;;;;;;;7.43;4.77;;;;;;;23.94;63.93;100905.72;5072913;28;20189;-79
2023/10/02 08:52:47;;;;;;;4.70;2.77;;;;;;;24.01;63.70;100919.72;5071491;28;20183;-79
2023/10/02 08:55:51;;;;;;;6.07;4.67;;;;;;;23.95;63.52;100909.31;5071782;28;20208;-79
2023/10/02 08:58:21;;;;;;;13.17;4.03;;;;;;;24.21;63.21;100906.25;5073391;28;20173;-79
2023/10/02 09:03:47;;;;;;;4.47;3.57;;;;;;;24.07;63.49;100906.19;5073080;28;20210;-79
2023/10/02 09:06:28;;;;;;;2.97;2.43;;;;;;;24.35;62.96;100910.31;5072938;28;20543;-79
2023/10/02 09:09:16;;;;;;;3.10;2.70;;;;;;;24.76;62.12;100913.63;5072849;28;20304;-79
2023/10/02 09:11:44;;;;;;;12.83;3.47;;;;;;;24.39;61.61;100891.56;5072504;28;20241;-78
2023/10/02 09:19:48;;;;;;;2.10;1.87;;;;;;;24.61;61.54;100905.22;5072341;28;20198;-79
2023/10/02 09:22:14;;;;;;;5.83;4.27;;;;;;;24.48;61.50;100895.59;5072066;28;20271;-78
2023/10/02 09:24:41;;;;;;;2.33;2.13;;;;;;;24.76;61.25;100906.03;5072545;28;20195;-79
2023/10/02 09:27:23;;;;;;;1.73;1.63;;;;;;;25.41;60.79;100929.25;5071260;28;20182;-80
2023/10/02 09:32:50;;;;;;;2.67;1.37;;;;;;;25.54;60.41;100905.25;5073032;28;20192;-80
2023/10/02 09:38:10;;;;;;;4.27;3.43;;;;;;;25.25;60.27;100893.28;5073403;28;20689;-80
2023/10/02 09:41:14;;;;;;;5.93;2.97;;;;;;;25.13;60.12;100886.09;5071380;28;20187;-80
2023/10/02 09:43:41;;;;;;;5.90;3.37;;;;;;;25.03;60.52;100878.53;5070935;28;20205;-78
2023/10/02 09:46:20;;;;;;;4.87;3.60;;;;;;;25.08;60.41;100874.53;5071142;28;20650;-79
2023/10/02 09:49:24;;;;;;;0.63;0.63;;;;;;;25.67;59.65;100897.22;5070783;28;20188;-79
2023/10/02 09:52:15;;;;;;;2.00;1.77;;;;;;;25.95;59.55;100896.38;5066682;28;20190;-79
2023/10/02 09:54:51;;;;;;;8.57;4.67;;;;;;;25.64;59.11;100862.47;5070994;28;20207;-78
2023/10/02 09:57:25;;;;;;;4.50;1.60;;;;;;;26.13;59.25;100894.31;5072128;28;20596;-78
2023/10/02 09:59:54;;;;;;;2.00;1.77;;;;;;;26.35;58.54;100886.59;5070747;28;20183;-79
2023/10/02 10:10:48;;;;;;;10.80;4.07;;;;;;;26.27;58.19;100854.22;5071959;28;20612;-80
2023/10/02 10:13:37;;;;;;;4.83;3.47;;;;;;;26.45;58.28;100873.75;5072463;28;20273;-80
2023/10/02 10:16:18;;;;;;;2.37;2.20;;;;;;;26.51;57.45;100858.13;5072153;28;20213;-78
2023/10/02 10:24:56;;;;;;;4.97;1.90;;;;;;;26.84;57.25;100863.06;5072230;28;20618;-80
2023/10/02 10:27:42;;;;;;;5.23;3.83;;;;;;;26.80;57.60;100842.69;5071690;28;20185;-80
2023/10/02 10:30:25;;;;;;;3.90;2.70;;;;;;;26.94;57.08;100853.78;5065363;28;20198;-80
2023/10/02 10:33:13;;;;;;;3.73;2.60;;;;;;;26.99;57.54;100860.94;5073380;28;20166;-80
2023/10/02 10:35:52;;;;;;;0.73;0.63;;;;;;;27.07;56.21;100842.91;5073811;28;20213;-80
2023/10/02 10:38:26;;;;;;;4.47;1.93;;;;;;;27.03;57.38;100853.31;5074645;28;20182;-80
2023/10/02 10:40:59;;;;;;;0.00;0.00;;;;;;;27.13;56.46;100849.63;5072907;28;20257;-80
2023/10/02 10:46:29;;;;;;;2.83;2.60;;;;;;;27.66;55.96;100853.94;5073594;28;20613;-80
2023/10/02 10:49:10;;;;;;;6.00;2.87;;;;;;;27.28;55.79;100830.66;5073264;28;20198;-79
2023/10/02 10:51:39;;;;;;;1.10;0.93;;;;;;;27.17;56.70;100821.53;5071743;28;20193;-79
2023/10/02 10:54:12;;;;;;;1.50;1.40;;;;;;;27.52;56.50;100834.41;5073411;28;20198;-80
2023/10/02 10:56:44;;;;;;;2.07;1.97;;;;;;;27.66;55.95;100831.47;5072173;28;20180;-80
2023/10/02 10:59:24;;;;;;;3.37;2.63;;;;;;;27.43;56.92;100826.47;5071781;28;20182;-79
2023/10/02 11:04:34;;;;;;;0.07;0.07;;;;;;;27.92;56.18;100851.59;5076856;28;20200;-80
2023/10/02 11:07:19;;;;;;;1.30;1.20;;;;;;;27.64;55.36;100825.50;5076837;28;20206;-80
2023/10/02 11:10:14;;;;;;;2.20;1.80;;;;;;;28.09;55.96;100859.03;5076887;28;20714;-80
2023/10/02 11:12:39;;;;;;;1.20;1.20;;;;;;;28.02;54.74;100831.03;5076146;28;20195;-80
2023/10/02 11:15:43;;;;;;;1.40;1.30;;;;;;;27.41;55.55;100800.06;5076490;28;20272;-80
2023/10/02 11:18:18;;;;;;;3.07;0.93;;;;;;;27.61;55.78;100809.44;5076121;28;20190;-79
2023/10/02 11:20:49;;;;;;;0.00;0.00;;;;;;;28.14;54.99;100833.28;5076212;28;20174;-79
2023/10/02 11:23:38;;;;;;;4.67;3.67;;;;;;;27.80;55.34;100806.03;5074830;28;20217;-80
2023/10/02 11:26:14;;;;;;;2.27;2.03;;;;;;;28.10;56.22;100826.91;5074695;28;20182;-80
2023/10/02 11:28:49;;;;;;;0.20;0.20;;;;;;;28.28;54.46;100818.25;5075738;28;20186;-80
2023/10/02 11:31:32;;;;;;;0.63;0.37;;;;;;;28.56;55.20;100837.50;5078283;28;20181;-80
2023/10/02 11:34:02;;;;;;;1.47;0.97;;;;;;;28.39;54.96;100816.09;5075136;28;20210;-80
2023/10/02 11:36:33;;;;;;;0.77;0.53;;;;;;;28.34;54.59;100803.28;5075926;28;20186;-80
2023/10/02 11:38:59;;;;;;;0.43;0.43;;;;;;;28.64;54.65;100804.44;5075541;28;20252;-79
2023/10/02 11:41:27;;;;;;;2.73;2.43;;;;;;;28.16;54.15;100774.63;5075018;28;20190;-80
2023/10/02 11:43:54;;;;;;;0.00;0.00;;;;;;;28.67;53.77;100806.41;5075342;28;20197;-81
2023/10/02 11:46:20;;;;;;;0.00;0.00;;;;;;;28.85;54.51;100803.28;5074266;28;20193;-80
2023/10/02 11:48:49;;;;;;;3.77;2.80;;;;;;;28.32;54.77;100772.00;5073985;28;20193;-79
2023/10/02 11:51:14;;;;;;;2.47;2.27;;;;;;;28.15;54.15;100768.22;5073836;28;20262;-79
2023/10/02 11:53:39;;;;;;;1.03;1.03;;;;;;;28.32;55.48;100782.44;5074024;28;20706;-79
2023/10/02 11:56:05;;;;;;;9.80;3.50;;;;;;;27.99;55.17;100756.03;5074354;28;20265;-79
2023/10/02 11:58:30;;;;;;;0.97;0.40;;;;;;;28.09;54.79;100757.88;5074227;28;20189;-79
2023/10/02 12:00:57;;;;;;;4.13;2.23;;;;;;;27.86;54.76;100741.75;5073822;28;20210;-78
2023/10/02 12:03:22;;;;;;;4.03;3.53;;;;;;;27.62;54.74;100724.00;5074041;28;20676;-79
2023/10/02 12:05:50;;;;;;;0.67;0.60;;;;;;;27.79;55.58;100753.91;5074308;28;20189;-78
2023/10/02 12:08:20;;;;;;;1.60;1.27;;;;;;;28.26;54.46;100770.09;5073834;28;20178;-79
2023/10/02 12:10:45;;;;;;;0.97;0.00;;;;;;;28.30;54.55;100745.53;5072326;28;20192;-80
2023/10/02 12:13:11;;;;;;;3.37;3.07;;;;;;;28.05;55.07;100743.06;5072538;28;20573;-79
2023/10/02 12:15:37;;;;;;;0.50;0.40;;;;;;;28.42;54.90;100764.63;5072794;28;20217;-79
2023/10/02 12:18:04;;;;;;;0.63;0.63;;;;;;;28.06;55.36;100744.66;5072689;28;20187;-78
2023/10/02 12:20:30;;;;;;;0.27;0.27;;;;;;;27.85;55.49;100728.94;5072206;28;20205;-80
2023/10/02 12:22:56;;;;;;;7.43;1.87;;;;;;;27.81;55.96;100731.78;5071939;28;20206;-79
2023/10/02 12:25:21;;;;;;;5.00;2.40;;;;;;;27.88;55.87;100732.91;5074124;28;20182;-80
2023/10/02 12:27:49;;;;;;;3.57;1.87;;;;;;;28.02;55.85;100741.91;5072540;28;20182;-79
2023/10/02 12:30:15;;;;;;;4.23;2.50;;;;;;;27.71;55.72;100721.50;5072167;28;20439;-78
2023/10/02 12:32:41;;;;;;;5.90;1.40;;;;;;;28.25;55.42;100740.38;5073531;28;20186;-79
2023/10/02 12:35:07;;;;;;;0.37;0.37;;;;;;;28.40;54.70;100742.56;5073490;28;20198;-79